• Join FlightAware (Why Join?)
  • Login
  • US Flag 
04:40PM EDT


 

Airport Tracker/Info


-or-


 

Live Flight TrackerFlight Track Log ✈ SKQ45 ✈ 29-Apr-2013 ✈ KSTL - KOSU

Flight Track Log - Related Links

Times and Time Zones

All times are in EDT time to prevent confusion due to time zone crossing. See the SKQ45 flight status page for this flight to view local times or setup timezone preferences in your user account.

Time Position Orientation Groundspeed Altitude Reporting Facility
EDT Latitude Longitude Course Direction KTS MPH feet Rate Location/Type
12:02AM 38.7667 -90.3000 72° East 171 197 2,000  Level Gateway (St. Louis) TRACON
12:03AM 38.8189 -90.2522 35° Northeast 193 222 3,400 900 Climbing Kansas City Center
12:04AM 38.8614 -90.2075 39° Northeast 195 224 4,000 1,020 Climbing Kansas City Center
12:05AM 38.9075 -90.1611 38° Northeast 203 234 5,500 1,140 Climbing Kansas City Center
12:06AM 38.9492 -90.1178 39° Northeast 199 229 6,400 900 Climbing Kansas City Center
12:07AM 38.9919 -90.0725 39° Northeast 198 228 7,400 900 Climbing Kansas City Center
12:08AM 39.0344 -90.0286 39° Northeast 197 227 8,300 1,020 Climbing Kansas City Center
12:09AM 39.0778 -89.9833 39° Northeast 199 229 9,500 1,200 Climbing Kansas City Center
12:10AM 39.1231 -89.9367 39° Northeast 198 228 10,800 1,140 Climbing Kansas City Center
12:11AM 39.1692 -89.8897 38° Northeast 197 227 11,900 960 Climbing Kansas City Center
12:12AM 39.2061 -89.8467 42° Northeast 203 234 12,800 900 Climbing Kansas City Center
12:13AM 39.2131 -89.7731 83° East 206 237 13,800 900 Climbing Kansas City Center
12:14AM 39.2233 -89.6997 80° East 207 238 14,700 900 Climbing Kansas City Center
12:15AM 39.2358 -89.6228 78° East 216 249 15,700 780 Climbing Kansas City Center
12:16AM 39.2472 -89.5467 79° East 217 250 16,400 720 Climbing Kansas City Center
12:17AM 39.2603 -89.4681 78° East 222 255 17,200 660 Climbing Kansas City Center
12:18AM 39.2719 -89.3886 79° East 225 259 17,800 660 Climbing Kansas City Center
12:19AM 39.2878 -89.2911 78° East 230 265 18,600 540 Climbing Kansas City Center
12:20AM 39.3011 -89.2075 78° East 235 270 19,000 180 Climbing Kansas City Center
12:21AM 39.3147 -89.1169 79° East 251 289 19,000  Level Kansas City Center
12:22AM 39.3292 -89.0214 79° East 265 305 19,000  Level Kansas City Center
12:23AM 39.3447 -88.9250 78° East 271 312 19,000  Level Kansas City Center
12:24AM 39.3619 -88.8300 77° East 273 314 19,000  Level Kansas City Center
12:25AM 39.3750 -88.7325 80° East 275 316 19,000  Level Kansas City Center
12:26AM 39.3892 -88.6367 79° East 274 315 19,000  Level Kansas City Center
12:27AM 39.4036 -88.5311 80° East 272 313 19,000  Level Kansas City Center
12:28AM 39.4183 -88.4333 79° East 274 315 19,000  Level Kansas City Center
12:29AM 39.4333 -88.3333 79° East 278 320 19,000  Level Kansas City Center
12:30AM 39.4481 -88.2353 79° East 277 319 19,000  Level Kansas City Center
12:31AM 39.4614 -88.1372 80° East 276 318 19,000  Level Kansas City Center
12:32AM 39.4764 -88.0400 79° East 275 316 19,000  Level Kansas City Center
12:33AM 39.4892 -87.9436 80° East 274 315 19,000  Level Kansas City Center
12:34AM 39.5039 -87.8450 79° East 275 316 19,000  Level Kansas City Center
12:34AM 39.5094 -87.8125 77° East 276 318 19,000  Level Indianapolis Center
12:35AM 39.5211 -87.7136 81° East 277 319 19,000  Level Indianapolis Center
12:36AM 39.5353 -87.6156 79° East 276 318 19,000  Level Indianapolis Center
12:37AM 39.5500 -87.5181 79° East 275 316 19,000  Level Indianapolis Center
12:38AM 39.5633 -87.4203 80° East 275 316 19,000  Level Indianapolis Center
12:40AM 39.5772 -87.3242 79° East 272 313 19,000  Level Indianapolis Center
12:41AM 39.5894 -87.2253 81° East 275 316 19,000  Level Indianapolis Center
12:42AM 39.6036 -87.1283 79° East 273 314 19,000  Level Indianapolis Center
12:43AM 39.6167 -87.0311 80° East 271 312 19,000  Level Indianapolis Center
12:44AM 39.6300 -86.9325 80° East 274 315 19,000  Level Indianapolis Center
12:45AM 39.6431 -86.8331 80° East 276 318 19,000  Level Indianapolis Center
12:46AM 39.6561 -86.7342 80° East 277 319 19,000  Level Indianapolis Center
12:47AM 39.6692 -86.6361 80° East 275 316 19,000  Level Indianapolis Center
12:48AM 39.6819 -86.5375 80° East 276 318 19,000  Level Indianapolis Center
12:49AM 39.6953 -86.4389 80° East 277 319 19,000  Level Indianapolis Center
12:50AM 39.7067 -86.3428 81° East 273 314 19,000  Level Indianapolis Center
12:51AM 39.7206 -86.2364 80° East 273 314 19,000  Level Indianapolis Center
12:52AM 39.7317 -86.1508 80° East 277 319 19,000  Level Indianapolis Center
12:53AM 39.7442 -86.0539 80° East 273 314 19,000  Level Indianapolis Center
12:54AM 39.7561 -85.9550 81° East 275 316 19,000  Level Indianapolis Center
12:55AM 39.7689 -85.8564 80° East 276 318 19,000  Level Indianapolis Center
12:56AM 39.7808 -85.7572 81° East 276 318 19,000  Level Indianapolis Center
12:57AM 39.7925 -85.6583 81° East 276 318 19,000  Level Indianapolis Center
12:58AM 39.8056 -85.5589 80° East 277 319 19,000  Level Indianapolis Center
12:59AM 39.8172 -85.4606 81° East 275 316 19,000  Level Indianapolis Center
01:00AM 39.8300 -85.3619 80° East 274 315 19,000  Level Indianapolis Center
01:01AM 39.8419 -85.2628 81° East 275 316 19,000  Level Indianapolis Center
01:02AM 39.8522 -85.1631 82° East 275 316 19,000  Level Indianapolis Center
01:03AM 39.8650 -85.0639 80° East 276 318 19,000  Level Indianapolis Center
01:04AM 39.8758 -84.9653 82° East 273 314 19,000  Level Indianapolis Center
01:05AM 39.8889 -84.8553 81° East 274 315 19,000  Level Indianapolis Center
01:06AM 39.8997 -84.7550 82° East 277 319 19,000 -540 Level Indianapolis Center
01:07AM 39.9117 -84.6539 81° East 280 322 18,000 -1,200 Descending Indianapolis Center
01:08AM 39.9233 -84.5433 82° East 304 350 16,700 -1,500 Descending Indianapolis Center
01:09AM 39.9358 -84.4336 82° East 305 351 15,100 -1,560 Descending Indianapolis Center
01:09AM 39.9403 -84.4050 79° East 304 350 14,700 -1,200 Descending Indianapolis Center
01:10AM 39.9467 -84.3458 82° East 295 339 13,900 -1,380 Descending Indianapolis Center
01:10AM 39.9506 -84.3003 84° East 285 328 13,300 -1,440 Descending Indianapolis Center
01:11AM 39.9578 -84.2433 81° East 284 327 12,500 -1,500 Descending Indianapolis Center
01:11AM 39.9628 -84.1983 82° East 284 327 11,800 -1,500 Descending Indianapolis Center
01:12AM 39.9686 -84.1408 82° East 282 325 11,000 -1,500 Descending Indianapolis Center
01:12AM 39.9731 -84.0964 83° East 281 323 10,300 -1,500 Descending Indianapolis Center
01:13AM 39.9794 -84.0389 82° East 280 322 9,500 -1,620 Descending Indianapolis Center
01:13AM 39.9847 -83.9969 81° East 276 318 8,700 -1,500 Descending Indianapolis Center
01:14AM 39.9906 -83.9417 82° East 273 314 8,000 -1,320 Descending Indianapolis Center
01:14AM 39.9942 -83.9031 83° East 262 302 7,400 -1,500 Descending Indianapolis Center
01:15AM 40.0000 -83.8469 82° East 265 305 6,500 -1,680 Descending Indianapolis Center
01:15AM 40.0039 -83.8033 83° East 258 297 5,700 -1,380 Descending Indianapolis Center
01:16AM 40.0103 -83.7536 80° East 260 299 5,100 -600 Descending Indianapolis Center
01:16AM 40.0147 -83.7122 82° East 256 295 5,100  Level Indianapolis Center
01:17AM 40.0197 -83.6617 83° East 256 295 5,100  Level Indianapolis Center
01:17AM 40.0233 -83.6233 83° East 241 277 5,100  Level Indianapolis Center
01:18AM 40.0319 -83.5761 77° East 246 283 5,100 -420 Level Indianapolis Center
01:18AM 40.0442 -83.5414 65° Northeast 253 291 4,700 -1,020 Descending Indianapolis Center
01:19AM 40.0600 -83.4903 68° East 250 288 4,100 -900 Descending Indianapolis Center
01:20AM 40.0661 -83.3978 85° East 252 290 3,300 -480 Descending Indianapolis Center
01:21AM 40.0675 -83.3119 89° East 252 290 3,200 -120 Descending Indianapolis Center
01:23AM 40.0606 -83.1529 78° East  Level FlightAware Approximate
01:30AM 40.0667 -83.0667 90° East  Level FlightAware Approximate